createdAt,value
2019-03-17T00:01:33.281Z,94947.86
2019-03-17T00:03:59.671Z,94945.88
2019-03-17T00:06:25.972Z,94951.09
2019-03-17T00:08:52.309Z,94943.98
2019-03-17T00:11:18.688Z,94942.48
2019-03-17T00:13:45.012Z,94933.10
2019-03-17T00:16:11.419Z,94932.06
2019-03-17T00:18:37.739Z,94927.08
2019-03-17T00:21:04.117Z,94934.05
2019-03-17T00:23:30.409Z,94931.48
2019-03-17T00:25:56.870Z,94932.06
2019-03-17T00:28:23.156Z,94932.89
2019-03-17T00:30:49.503Z,94936.00
2019-03-17T00:33:15.833Z,94933.80
2019-03-17T00:35:42.172Z,94931.70
2019-03-17T00:38:08.519Z,94934.02
2019-03-17T00:40:34.853Z,94936.22
2019-03-17T00:43:01.211Z,94934.94
2019-03-17T00:45:27.560Z,94931.91
2019-03-17T00:47:53.901Z,94933.66
2019-03-17T00:50:20.255Z,94925.41
2019-03-17T00:52:46.596Z,94927.23
2019-03-17T00:55:13.325Z,94934.60
2019-03-17T00:57:39.661Z,94933.56
2019-03-17T01:00:06.014Z,94933.92
2019-03-17T01:02:32.415Z,94926.99
2019-03-17T01:04:58.713Z,94926.99
2019-03-17T01:07:25.108Z,94925.92
2019-03-17T01:09:51.511Z,94926.53
2019-03-17T01:12:17.876Z,94916.36
2019-03-17T01:14:44.176Z,94918.80
2019-03-17T01:17:10.536Z,94921.25
2019-03-17T01:19:36.963Z,94924.88
2019-03-17T01:22:03.313Z,94924.77
2019-03-17T01:24:29.664Z,94922.66
2019-03-17T01:26:55.991Z,94925.09
2019-03-17T01:29:22.357Z,94929.89
2019-03-17T01:31:48.690Z,94934.53
2019-03-17T01:34:15.024Z,94935.36
2019-03-17T01:36:41.414Z,94934.75
2019-03-17T01:39:07.781Z,94937.68
2019-03-17T01:41:34.118Z,94936.77
2019-03-17T01:44:00.492Z,94942.73
2019-03-17T01:46:26.833Z,94948.86
2019-03-17T01:48:53.207Z,94945.59
2019-03-17T01:51:19.572Z,94939.79
2019-03-17T01:53:45.950Z,94945.14
2019-03-17T01:56:12.326Z,94944.67
2019-03-17T01:58:38.632Z,94944.22
2019-03-17T02:01:05.103Z,94948.16
2019-03-17T02:03:31.583Z,94953.08
2019-03-17T02:05:57.875Z,94950.27
2019-03-17T02:08:24.285Z,94950.14
2019-03-17T02:10:50.672Z,94948.73
2019-03-17T02:13:16.968Z,94950.48
2019-03-17T02:15:43.306Z,94950.72
2019-03-17T02:18:09.656Z,94941.95
2019-03-17T02:20:36.013Z,94938.72
2019-03-17T02:23:02.360Z,94931.48
2019-03-17T02:25:28.720Z,94934.56
2019-03-17T02:27:55.078Z,94948.37
2019-03-17T02:30:21.454Z,94948.16
2019-03-17T02:32:47.811Z,94948.73
2019-03-17T02:35:14.166Z,94949.20
2019-03-17T02:37:40.586Z,94952.67
2019-03-17T02:40:06.853Z,94950.72
2019-03-17T02:42:33.261Z,94956.16
2019-03-17T02:44:59.578Z,94953.59
2019-03-17T02:47:25.916Z,94971.09
2019-03-17T02:49:52.240Z,94981.36
2019-03-17T02:52:18.668Z,94990.34
2019-03-17T02:54:44.940Z,94991.07
2019-03-17T02:57:11.317Z,94998.41
2019-03-17T02:59:37.599Z,94994.09
2019-03-17T03:02:04.333Z,94996.88
2019-03-17T03:04:30.685Z,95005.64
2019-03-17T03:06:57.075Z,95008.75
2019-03-17T03:09:23.430Z,95023.19
2019-03-17T03:11:49.741Z,95024.52
2019-03-17T03:14:16.089Z,95018.31
2019-03-17T03:16:42.416Z,95017.03
2019-03-17T03:19:08.798Z,95022.73
2019-03-17T03:21:35.126Z,95027.04
2019-03-17T03:24:01.580Z,95027.04
2019-03-17T03:26:27.923Z,95025.64
2019-03-17T03:28:54.268Z,95025.39
2019-03-17T03:31:20.751Z,95027.04
2019-03-17T03:33:47.062Z,95024.72
2019-03-17T03:36:13.394Z,95030.06
2019-03-17T03:38:39.782Z,95029.61
2019-03-17T03:41:06.131Z,95028.41
2019-03-17T03:43:32.454Z,95022.45
2019-03-17T03:45:58.821Z,95019.43
2019-03-17T03:48:26.249Z,95008.34
2019-03-17T03:50:51.495Z,95013.59
2019-03-17T03:53:17.851Z,95008.47
2019-03-17T03:55:44.189Z,95012.52
2019-03-17T03:58:10.576Z,95017.44
2019-03-17T04:00:36.908Z,95013.89
2019-03-17T04:03:03.272Z,95022.32
2019-03-17T04:05:32.572Z,95022.94
2019-03-17T04:07:56.064Z,95018.36
2019-03-17T04:10:22.373Z,95024.77
2019-03-17T04:12:48.710Z,95022.94
2019-03-17T04:15:15.045Z,95028.61
2019-03-17T04:17:41.390Z,95027.33
2019-03-17T04:20:07.736Z,95035.86
2019-03-17T04:22:34.178Z,95035.86
2019-03-17T04:25:00.554Z,95036.56
2019-03-17T04:27:26.843Z,95042.27
2019-03-17T04:29:53.199Z,95040.90
2019-03-17T04:32:19.599Z,95043.18
2019-03-17T04:34:46.005Z,95035.98
2019-03-17T04:37:12.336Z,95051.62
2019-03-17T04:39:38.750Z,95057.20
2019-03-17T04:42:05.024Z,95056.13
2019-03-17T04:44:31.442Z,95056.50
2019-03-17T04:46:57.745Z,95059.86
2019-03-17T04:49:24.410Z,95063.05
2019-03-17T04:51:50.533Z,95067.47
2019-03-17T04:54:16.913Z,95062.80
2019-03-17T04:56:45.507Z,95058.73
2019-03-17T04:59:11.837Z,95064.08
2019-03-17T05:01:38.168Z,95062.95
2019-03-17T05:04:04.594Z,95070.13
2019-03-17T05:06:30.942Z,95079.39
2019-03-17T05:08:57.326Z,95085.39
2019-03-17T05:11:23.655Z,95073.43
2019-03-17T05:13:50.010Z,95072.65
2019-03-17T05:16:16.375Z,95079.02
2019-03-17T05:18:42.745Z,95082.57
2019-03-17T05:21:09.137Z,95086.00
2019-03-17T05:23:35.476Z,95087.45
2019-03-17T05:26:01.843Z,95084.13
2019-03-17T05:28:28.261Z,95099.02
2019-03-17T05:30:54.557Z,95097.56
2019-03-17T05:33:20.914Z,95092.83
2019-03-17T05:35:47.278Z,95089.95
2019-03-17T05:38:13.626Z,95086.34
2019-03-17T05:40:40.004Z,95085.76
2019-03-17T05:43:06.293Z,95086.59
2019-03-17T05:45:32.627Z,95085.00
2019-03-17T05:47:58.974Z,95091.08
2019-03-17T05:50:25.435Z,95087.47
2019-03-17T05:52:51.724Z,95090.92
2019-03-17T05:55:18.070Z,95097.69
2019-03-17T05:57:44.366Z,95102.15
2019-03-17T06:00:10.767Z,95100.19
2019-03-17T06:02:37.278Z,95097.03
2019-03-17T06:05:03.628Z,95096.02
2019-03-17T06:07:30.055Z,95094.16
2019-03-17T06:09:56.384Z,95104.12
2019-03-17T06:12:22.736Z,95106.48
2019-03-17T06:14:49.074Z,95114.31
2019-03-17T06:17:15.415Z,95116.72
2019-03-17T06:19:41.747Z,95115.22
2019-03-17T06:22:08.079Z,95116.28
2019-03-17T06:24:34.408Z,95115.33
2019-03-17T06:27:00.731Z,95111.25
2019-03-17T06:29:27.074Z,95107.18
2019-03-17T06:31:53.463Z,95104.97
2019-03-17T06:34:19.802Z,95111.55
2019-03-17T06:36:46.203Z,95106.77
2019-03-17T06:39:12.534Z,95110.04
2019-03-17T06:41:38.874Z,95114.38
2019-03-17T06:44:05.241Z,95121.53
2019-03-17T06:46:31.608Z,95120.03
2019-03-17T06:48:57.959Z,95115.95
2019-03-17T06:51:24.281Z,95118.39
2019-03-17T06:53:56.419Z,95118.66
2019-03-17T06:56:16.949Z,95115.03
2019-03-17T06:58:43.323Z,95121.25
2019-03-17T07:01:09.656Z,95126.62
2019-03-17T07:03:36.007Z,95124.78
2019-03-17T07:06:02.342Z,95116.58
2019-03-17T07:08:28.720Z,95121.03
2019-03-17T07:10:55.147Z,95126.45
2019-03-17T07:13:21.445Z,95124.11
2019-03-17T07:15:47.796Z,95126.23
2019-03-17T07:18:14.265Z,95115.70
2019-03-17T07:20:40.602Z,95121.09
2019-03-17T07:23:06.929Z,95119.67
2019-03-17T07:25:33.469Z,95121.69
2019-03-17T07:27:59.807Z,95118.06
2019-03-17T07:30:26.222Z,95120.63
2019-03-17T07:32:52.532Z,95118.20
2019-03-17T07:35:18.847Z,95117.73
2019-03-17T07:37:56.183Z,95116.34
2019-03-17T07:40:11.482Z,95121.27
2019-03-17T07:42:37.833Z,95124.57
2019-03-17T07:45:04.165Z,95118.59
2019-03-17T07:47:30.550Z,95119.75
2019-03-17T07:49:57.061Z,95120.81
2019-03-17T07:52:23.480Z,95116.48
2019-03-17T07:54:49.842Z,95121.88
2019-03-17T07:57:16.152Z,95111.58
2019-03-17T07:59:42.503Z,95117.45
2019-03-17T08:02:08.833Z,95118.50
2019-03-17T08:04:42.470Z,95119.20
2019-03-17T08:07:01.521Z,95118.38
2019-03-17T08:09:27.906Z,95117.78
2019-03-17T08:11:54.259Z,95119.07
2019-03-17T08:14:20.570Z,95110.42
2019-03-17T08:16:46.955Z,95109.03
2019-03-17T08:19:13.254Z,95108.20
2019-03-17T08:21:39.645Z,95109.83
2019-03-17T08:24:06.021Z,95110.32
2019-03-17T08:26:32.365Z,95100.35
2019-03-17T08:28:58.721Z,95109.36
2019-03-17T08:31:25.049Z,95100.02
2019-03-17T08:33:51.378Z,95099.53
2019-03-17T08:36:17.872Z,95106.79
2019-03-17T08:38:44.130Z,95098.23
2019-03-17T08:41:10.452Z,95096.02
2019-03-17T08:43:36.783Z,95098.73
2019-03-17T08:46:03.119Z,95093.09
2019-03-17T08:48:29.533Z,95096.95
2019-03-17T08:50:55.831Z,95095.20
2019-03-17T08:53:22.318Z,95094.64
2019-03-17T08:55:48.699Z,95095.20
2019-03-17T08:58:15.031Z,95094.05
2019-03-17T09:00:41.366Z,95083.61
2019-03-17T09:03:07.919Z,95083.28
2019-03-17T09:05:34.256Z,95082.45
2019-03-17T09:08:00.648Z,95084.57
2019-03-17T09:10:26.986Z,95080.45
2019-03-17T09:12:53.355Z,95078.83
2019-03-17T09:15:19.663Z,95077.08
2019-03-17T09:17:46.030Z,95077.87
2019-03-17T09:20:12.374Z,95082.69
2019-03-17T09:22:38.733Z,95071.11
2019-03-17T09:25:05.167Z,95076.13
2019-03-17T09:27:31.494Z,95071.56
2019-03-17T09:29:57.809Z,95063.02
2019-03-17T09:32:24.144Z,95065.59
2019-03-17T09:34:50.531Z,95060.08
2019-03-17T09:37:16.854Z,95057.50
2019-03-17T09:39:43.222Z,95061.04
2019-03-17T09:42:11.111Z,95058.80
2019-03-17T09:44:35.899Z,95055.06
2019-03-17T09:47:02.232Z,95049.91
2019-03-17T09:49:28.614Z,95046.52
2019-03-17T09:51:55.009Z,95045.92
2019-03-17T09:54:21.370Z,95033.05
2019-03-17T09:56:47.730Z,95042.05
2019-03-17T09:59:14.043Z,95038.20
2019-03-17T10:01:40.383Z,95035.98
2019-03-17T10:04:06.790Z,95034.70
2019-03-17T10:06:33.051Z,95030.37
2019-03-17T10:09:00.551Z,95028.95
2019-03-17T10:11:25.832Z,95028.95
2019-03-17T10:13:52.160Z,95027.20
2019-03-17T10:16:18.563Z,95021.59
2019-03-17T10:18:44.898Z,95024.16
2019-03-17T10:21:11.241Z,95016.34
2019-03-17T10:23:37.626Z,95015.84
2019-03-17T10:26:03.959Z,95013.86
2019-03-17T10:28:30.288Z,95014.81
2019-03-17T10:30:56.633Z,95001.48
2019-03-17T10:33:22.980Z,95000.98
2019-03-17T10:35:49.334Z,95003.55
2019-03-17T10:38:15.731Z,94995.37
2019-03-17T10:40:42.093Z,94993.98
2019-03-17T10:43:08.439Z,94991.27
2019-03-17T10:45:34.870Z,94990.12
2019-03-17T10:48:01.203Z,94984.83
2019-03-17T10:50:27.634Z,94977.83
2019-03-17T10:52:53.945Z,94986.24
2019-03-17T10:55:20.297Z,94985.78
2019-03-17T10:57:46.628Z,94987.53
2019-03-17T11:00:13.165Z,94980.27
2019-03-17T11:02:39.559Z,94978.52
2019-03-17T11:05:05.949Z,94973.36
2019-03-17T11:07:32.235Z,94971.72
2019-03-17T11:09:58.571Z,94969.50
2019-03-17T11:12:24.940Z,94963.99
2019-03-17T11:14:51.277Z,94964.35
2019-03-17T11:17:17.666Z,94963.42
2019-03-17T11:19:43.939Z,94954.87
2019-03-17T11:22:10.316Z,94948.80
2019-03-17T11:24:36.674Z,94939.78
2019-03-17T11:27:03.013Z,94936.71
2019-03-17T11:29:29.462Z,94941.40
2019-03-17T11:31:55.785Z,94936.25
2019-03-17T11:34:22.132Z,94931.56
2019-03-17T11:36:48.492Z,94924.20
2019-03-17T11:39:14.875Z,94920.80
2019-03-17T11:41:41.439Z,94915.31
2019-03-17T11:44:07.848Z,94900.80
2019-03-17T11:46:34.180Z,94897.75
2019-03-17T11:49:00.509Z,94893.89
2019-03-17T11:51:26.836Z,94891.31
2019-03-17T11:53:53.254Z,94881.95
2019-03-17T11:56:19.569Z,94881.34
2019-03-17T11:58:46.005Z,94871.64
2019-03-17T12:01:12.415Z,94875.86
2019-03-17T12:03:38.876Z,94866.85
2019-03-17T12:06:05.406Z,94872.83
2019-03-17T12:08:31.827Z,94852.45
2019-03-17T12:10:58.261Z,94857.48
2019-03-17T12:13:24.623Z,94856.55
2019-03-17T12:15:50.993Z,94853.52
2019-03-17T12:18:17.288Z,94853.02
2019-03-17T12:20:43.786Z,94846.25
2019-03-17T12:23:10.130Z,94851.27
2019-03-17T12:25:36.461Z,94850.33
2019-03-17T12:28:02.807Z,94845.19
2019-03-17T12:30:29.239Z,94839.56
2019-03-17T12:32:55.545Z,94835.70
2019-03-17T12:35:21.956Z,94828.91
2019-03-17T12:37:48.283Z,94826.33
2019-03-17T12:40:14.621Z,94824.11
2019-03-17T12:42:40.981Z,94824.11
2019-03-17T12:45:07.317Z,94817.32
2019-03-17T12:47:33.647Z,94819.54
2019-03-17T12:49:59.975Z,94821.19
2019-03-17T12:52:26.373Z,94827.02
2019-03-17T12:54:52.655Z,94827.98
2019-03-17T12:57:19.194Z,94822.69
2019-03-17T12:59:45.630Z,94822.69
2019-03-17T13:02:12.470Z,94821.86
2019-03-17T13:04:38.798Z,94821.86
2019-03-17T13:07:05.254Z,94820.94
2019-03-17T13:09:31.554Z,94820.36
2019-03-17T13:11:57.878Z,94825.16
2019-03-17T13:14:24.212Z,94815.42
2019-03-17T13:16:50.600Z,94817.43
2019-03-17T13:19:16.960Z,94810.28
2019-03-17T13:21:43.472Z,94811.67
2019-03-17T13:24:09.974Z,94812.64
2019-03-17T13:26:36.306Z,94816.00
2019-03-17T13:29:02.641Z,94807.95
2019-03-17T13:31:28.997Z,94807.34
2019-03-17T13:33:55.459Z,94798.80
2019-03-17T13:36:21.857Z,94804.91
2019-03-17T13:38:48.185Z,94795.89
2019-03-17T13:41:14.576Z,94796.36
2019-03-17T13:43:41.023Z,94789.78
2019-03-17T13:46:07.347Z,94787.67
2019-03-17T13:48:33.717Z,94780.30
2019-03-17T13:51:00.051Z,94776.91
2019-03-17T13:53:26.455Z,94779.02
2019-03-17T13:55:52.792Z,94774.69
2019-03-17T13:58:19.176Z,94768.60
2019-03-17T14:00:45.468Z,94767.42
2019-03-17T14:03:11.836Z,94764.73
2019-03-17T14:05:38.186Z,94768.11
2019-03-17T14:08:04.548Z,94762.63
2019-03-17T14:10:40.411Z,94752.80
2019-03-17T14:12:57.259Z,94755.23
2019-03-17T14:15:23.623Z,94755.33
2019-03-17T14:17:50.029Z,94754.41
2019-03-17T14:20:16.351Z,94755.44
2019-03-17T14:22:42.699Z,94749.47
2019-03-17T14:25:09.073Z,94754.26
2019-03-17T14:27:35.548Z,94746.53
2019-03-17T14:30:01.910Z,94747.56
2019-03-17T14:32:28.441Z,94744.52
2019-03-17T14:34:54.947Z,94740.30
2019-03-17T14:37:21.309Z,94742.98
2019-03-17T14:39:47.695Z,94742.73
2019-03-17T14:42:14.097Z,94744.13
2019-03-17T14:44:40.423Z,94745.98
2019-03-17T14:47:06.810Z,94740.94
2019-03-17T14:49:33.110Z,94742.69
2019-03-17T14:51:59.565Z,94744.44
2019-03-17T14:54:25.849Z,94752.17
2019-03-17T14:56:52.211Z,94742.80
2019-03-17T14:59:18.589Z,94738.35
2019-03-17T15:01:44.882Z,94733.09
2019-03-17T15:04:11.248Z,94737.53
2019-03-17T15:06:37.575Z,94729.45
2019-03-17T15:09:03.991Z,94737.53
2019-03-17T15:11:30.340Z,94734.95
2019-03-17T15:13:56.692Z,94735.88
2019-03-17T15:16:23.015Z,94731.44
2019-03-17T15:18:49.385Z,94728.75
2019-03-17T15:21:15.720Z,94734.58
2019-03-17T15:23:42.084Z,94725.55
2019-03-17T15:26:08.577Z,94730.25
2019-03-17T15:28:34.918Z,94728.60
2019-03-17T15:31:11.394Z,94727.67
2019-03-17T15:33:27.708Z,94727.67
2019-03-17T15:35:54.047Z,94730.10
2019-03-17T15:38:20.371Z,94732.21
2019-03-17T15:40:47.083Z,94731.39
2019-03-17T15:43:13.129Z,94733.85
2019-03-17T15:45:39.515Z,94734.79
2019-03-17T15:48:05.907Z,94734.32
2019-03-17T15:50:32.256Z,94728.70
2019-03-17T15:52:58.762Z,94739.11
2019-03-17T15:55:25.118Z,94736.43
2019-03-17T15:57:51.497Z,94741.48
2019-03-17T16:00:25.025Z,94743.95
2019-03-17T16:02:44.162Z,94747.32
2019-03-17T16:05:10.501Z,94746.17
2019-03-17T16:07:42.279Z,94744.06
2019-03-17T16:10:03.200Z,94748.86
2019-03-17T16:12:29.609Z,94756.13
2019-03-17T16:14:55.908Z,94753.23
2019-03-17T16:17:22.257Z,94755.30
2019-03-17T16:19:48.612Z,94761.07
2019-03-17T16:22:14.937Z,94756.27
2019-03-17T16:24:41.284Z,94756.38
2019-03-17T16:27:07.609Z,94759.07
2019-03-17T16:29:33.990Z,94756.49
2019-03-17T16:32:00.338Z,94758.72
2019-03-17T16:34:26.710Z,94763.72
2019-03-17T16:36:53.129Z,94762.95
2019-03-17T16:39:19.498Z,94760.83
2019-03-17T16:41:46.050Z,94766.59
2019-03-17T16:44:12.225Z,94767.09
2019-03-17T16:46:38.573Z,94772.50
2019-03-17T16:49:04.896Z,94771.33
2019-03-17T16:51:31.328Z,94772.14
2019-03-17T16:53:57.663Z,94773.91
2019-03-17T16:56:23.991Z,94769.47
2019-03-17T16:58:50.279Z,94767.64
2019-03-17T17:01:16.614Z,94768.57
2019-03-17T17:03:42.969Z,94773.15
2019-03-17T17:06:09.497Z,94775.51
2019-03-17T17:08:35.897Z,94777.05
2019-03-17T17:11:02.254Z,94774.11
2019-03-17T17:13:28.607Z,94774.47
2019-03-17T17:15:54.997Z,94776.50
2019-03-17T17:18:21.360Z,94777.79
2019-03-17T17:20:47.779Z,94780.25
2019-03-17T17:23:14.140Z,94783.90
2019-03-17T17:25:40.816Z,94780.94
2019-03-17T17:28:07.202Z,94771.05
2019-03-17T17:30:33.663Z,94793.37
2019-03-17T17:32:59.919Z,94793.61
2019-03-17T17:35:26.270Z,94793.29
2019-03-17T17:37:52.630Z,94793.40
2019-03-17T17:40:19.073Z,94798.78
2019-03-17T17:42:45.415Z,94806.41
2019-03-17T17:45:11.768Z,94798.92
2019-03-17T17:47:38.105Z,94800.68
2019-03-17T17:50:04.434Z,94803.47
2019-03-17T17:52:30.961Z,94807.58
2019-03-17T17:54:57.289Z,94810.25
2019-03-17T17:57:23.652Z,94806.03
2019-03-17T17:59:49.986Z,94810.02
2019-03-17T18:02:16.384Z,94806.52
2019-03-17T18:04:42.749Z,94806.88
2019-03-17T18:07:09.093Z,94804.53
2019-03-17T18:09:35.432Z,94800.80
2019-03-17T18:12:01.770Z,94803.11
2019-03-17T18:14:28.148Z,94803.73
2019-03-17T18:16:54.461Z,94805.59
2019-03-17T18:19:20.811Z,94803.37
2019-03-17T18:21:47.141Z,94807.02
2019-03-17T18:24:13.572Z,94808.05
2019-03-17T18:26:39.926Z,94806.55
2019-03-17T18:29:06.243Z,94805.38
2019-03-17T18:31:32.667Z,94802.77
2019-03-17T18:33:58.988Z,94799.63
2019-03-17T18:36:25.340Z,94797.78
2019-03-17T18:38:51.751Z,94798.47
2019-03-17T18:41:18.150Z,94795.19
2019-03-17T18:43:44.460Z,94788.90
2019-03-17T18:46:10.809Z,94791.01
2019-03-17T18:48:37.156Z,94790.75
2019-03-17T18:51:03.485Z,94788.66
2019-03-17T18:53:29.823Z,94794.76
2019-03-17T18:55:56.241Z,94783.62
2019-03-17T18:58:22.563Z,94786.70
2019-03-17T19:00:48.960Z,94787.84
2019-03-17T19:03:15.311Z,94789.27
2019-03-17T19:05:41.657Z,94798.13
2019-03-17T19:08:08.004Z,94799.06
2019-03-17T19:10:34.396Z,94794.87
2019-03-17T19:13:03.658Z,94798.50
2019-03-17T19:15:27.172Z,94798.03
2019-03-17T19:17:53.515Z,94797.79
2019-03-17T19:20:19.850Z,94796.17
2019-03-17T19:22:46.253Z,94802.00
2019-03-17T19:25:13.847Z,94799.20
2019-03-17T19:27:38.966Z,94797.91
2019-03-17T19:30:05.331Z,94797.92
2019-03-17T19:32:31.815Z,94791.01
2019-03-17T19:34:58.157Z,94794.73
2019-03-17T19:37:24.475Z,94792.99
2019-03-17T19:39:50.797Z,94793.45
2019-03-17T19:42:17.121Z,94793.95
2019-03-17T19:44:43.505Z,94795.58
2019-03-17T19:47:09.846Z,94798.61
2019-03-17T19:49:36.186Z,94795.21
2019-03-17T19:52:02.574Z,94792.18
2019-03-17T19:54:28.935Z,94791.84
2019-03-17T19:56:55.328Z,94795.91
2019-03-17T19:59:21.660Z,94803.06
2019-03-17T20:01:47.966Z,94802.93
2019-03-17T20:04:14.350Z,94806.69
2019-03-17T20:06:40.719Z,94807.38
2019-03-17T20:09:07.210Z,94806.56
2019-03-17T20:11:33.394Z,94811.77
2019-03-17T20:13:59.725Z,94807.45
2019-03-17T20:16:26.059Z,94806.04
2019-03-17T20:18:52.429Z,94810.72
2019-03-17T20:21:18.912Z,94812.37
2019-03-17T20:23:45.262Z,94815.27
2019-03-17T20:26:11.602Z,94809.67
2019-03-17T20:28:37.966Z,94820.73
2019-03-17T20:31:04.362Z,94813.85
2019-03-17T20:33:30.774Z,94811.19
2019-03-17T20:35:57.230Z,94816.92
2019-03-17T20:38:23.561Z,94816.19
2019-03-17T20:40:49.883Z,94804.63
2019-03-17T20:43:29.250Z,94811.28
2019-03-17T20:45:42.696Z,94804.39
2019-03-17T20:48:09.171Z,94804.98
2019-03-17T20:50:35.389Z,94806.02
2019-03-17T20:53:01.813Z,94800.41
2019-03-17T20:55:28.174Z,94800.88
2019-03-17T20:57:54.521Z,94800.18
2019-03-17T21:00:20.864Z,94800.97
2019-03-17T21:02:47.203Z,94791.65
2019-03-17T21:05:13.577Z,94788.48
2019-03-17T21:07:39.941Z,94787.80
2019-03-17T21:10:06.351Z,94784.77
2019-03-17T21:12:32.718Z,94788.72
2019-03-17T21:14:59.041Z,94786.60
2019-03-17T21:17:25.445Z,94783.58
2019-03-17T21:19:51.773Z,94770.13
2019-03-17T21:22:18.183Z,94780.41
2019-03-17T21:24:44.559Z,94782.75
2019-03-17T21:27:10.874Z,94784.59
2019-03-17T21:29:37.175Z,94779.22
2019-03-17T21:32:03.506Z,94778.98
2019-03-17T21:34:29.866Z,94784.36
2019-03-17T21:36:56.222Z,94786.33
2019-03-17T21:39:22.610Z,94789.03
2019-03-17T21:41:48.901Z,94783.62
2019-03-17T21:44:15.357Z,94791.56
2019-03-17T21:46:41.693Z,94796.23
2019-03-17T21:49:08.073Z,94794.13
2019-03-17T21:51:34.420Z,94794.48
2019-03-17T21:54:00.734Z,94797.97
2019-03-17T21:56:27.065Z,94805.81
2019-03-17T21:58:53.397Z,94801.83
2019-03-17T22:01:19.729Z,94797.38
2019-03-17T22:03:46.106Z,94799.84
2019-03-17T22:06:12.447Z,94805.91
2019-03-17T22:08:38.821Z,94809.39
2019-03-17T22:11:05.227Z,94812.78
2019-03-17T22:13:31.612Z,94809.75
2019-03-17T22:15:57.983Z,94805.44
2019-03-17T22:18:24.374Z,94808.38
2019-03-17T22:20:50.674Z,94811.63
2019-03-17T22:23:17.036Z,94814.29
2019-03-17T22:25:43.390Z,94806.48
2019-03-17T22:28:09.761Z,94810.44
2019-03-17T22:30:36.102Z,94801.22
2019-03-17T22:33:02.462Z,94811.27
2019-03-17T22:35:28.861Z,94806.22
2019-03-17T22:37:55.197Z,94811.58
2019-03-17T22:40:21.574Z,94812.77
2019-03-17T22:42:47.948Z,94812.55
2019-03-17T22:45:14.281Z,94816.86
2019-03-17T22:47:41.432Z,94811.25
2019-03-17T22:50:07.711Z,94811.58
2019-03-17T22:52:34.120Z,94810.30
2019-03-17T22:55:00.498Z,94814.25
2019-03-17T22:57:26.830Z,94811.77
2019-03-17T22:59:53.191Z,94811.77
2019-03-17T23:02:19.548Z,94808.38
2019-03-17T23:04:45.882Z,94805.12
2019-03-17T23:07:12.206Z,94812.23
2019-03-17T23:09:38.578Z,94814.01
2019-03-17T23:12:04.949Z,94814.56
2019-03-17T23:14:36.613Z,94821.44
2019-03-17T23:16:57.647Z,94819.00
2019-03-17T23:19:24.025Z,94824.01
2019-03-17T23:21:50.310Z,94818.41
2019-03-17T23:24:16.639Z,94818.08
2019-03-17T23:26:42.966Z,94816.80
2019-03-17T23:29:09.329Z,94815.73
2019-03-17T23:31:35.659Z,94817.48
2019-03-17T23:34:01.973Z,94825.42
2019-03-17T23:36:28.301Z,94823.99
2019-03-17T23:38:54.626Z,94825.41
2019-03-17T23:41:21.001Z,94833.80
2019-03-17T23:43:47.279Z,94828.66
2019-03-17T23:46:13.607Z,94827.84
2019-03-17T23:48:40.003Z,94829.49
2019-03-17T23:51:06.308Z,94832.52
2019-03-17T23:53:32.639Z,94830.53
2019-03-17T23:55:58.999Z,94827.97
2019-03-17T23:58:25.342Z,94829.72
